PWSweather.com
Personal Weather Stations
Station Observations
KNYSYRAC2
Fairmount Hills, Fairmount, NY 13219

Fairmount HillsFairmount, NY 13219

Lat: 43.03602, Lon: -76.247151

Elevation: 663

Station Type: Ambient Weather WS-2080

http://weather.cerchia.com

High Low Average
Temperature 67.9°F19.9°C 50.1°F10.1°C 57.4°F14.1°C
Dew Point 54.6°F12.6°C 39.4°F4.1°C 47.4°F8.6°C
Winds 7.7 mph 12.4 kmh 1.0 mph 1.6 kmh 4.0 mph WNW6.4 kmh WNW
Wind Gusts 11.4 mph18.3 kmh 2.2 mph3.5 kmh 6.0 mph9.7 kmh
Humidity 93% 46% 72%
Pressure 30.07 in1018.3 mb 29.94 in1013.9 mb -
Precipitation 0.00 in0.0 mm - -
Hour Temp Dew Point Humidity Winds Wind Gusts Pressure Precip Precip Rate Daily Precip Total
12:00 AM 59.3°F15.2°C 55.4°F13.0°C 87% 2.2 mph S3.5 kmh S 3.8 mph6.1 kmh 29.94 in1013.9 mb 0.00 in0.0 mm 0.00 in/hr0.0 mm/hr 0.41 in10.4 mm
12:15 AM 58.7°F14.8°C 54.6°F12.6°C 86% 1.7 mph NW2.7 kmh NW 3.1 mph5.0 kmh 29.94 in1013.9 mb 0.00 in0.0 mm 0.00 in/hr0.0 mm/hr 0.00 in0.0 mm
12:30 AM 58.2°F14.6°C 54.3°F12.4°C 87% 1.7 mph NW2.7 kmh NW 2.2 mph3.5 kmh 29.95 in1014.2 mb 0.00 in0.0 mm 0.00 in/hr0.0 mm/hr 0.00 in0.0 mm
12:45 AM 57.8°F14.3°C 54.6°F12.6°C 89% 2.2 mph W3.5 kmh W 3.1 mph5.0 kmh 29.96 in1014.6 mb 0.00 in0.0 mm 0.00 in/hr0.0 mm/hr 0.00 in0.0 mm
01:00 AM 57.5°F14.2°C 54.6°F12.6°C 90% 2.0 mph NW3.2 kmh NW 3.1 mph5.0 kmh 29.95 in1014.2 mb 0.00 in0.0 mm 0.00 in/hr0.0 mm/hr 0.00 in0.0 mm
01:15 AM 56.9°F13.8°C 54.3°F12.4°C 91% 1.0 mph NNW1.6 kmh NNW 3.1 mph5.0 kmh 29.94 in1013.9 mb 0.00 in0.0 mm 0.00 in/hr0.0 mm/hr 0.00 in0.0 mm
01:30 AM 56.2°F13.4°C 53.6°F12.0°C 91% 1.2 mph W1.9 kmh W 2.2 mph3.5 kmh 29.95 in1014.2 mb 0.00 in0.0 mm 0.00 in/hr0.0 mm/hr 0.00 in0.0 mm
01:45 AM 56.2°F13.4°C 53.9°F12.2°C 92% 3.3 mph NNW5.3 kmh NNW 3.8 mph6.1 kmh 29.95 in1014.2 mb 0.00 in0.0 mm 0.00 in/hr0.0 mm/hr 0.00 in0.0 mm
02:00 AM 55.8°F13.2°C 53.9°F12.2°C 93% 4.5 mph NNW7.2 kmh NNW 7.6 mph12.2 kmh 29.95 in1014.2 mb 0.00 in0.0 mm 0.00 in/hr0.0 mm/hr 0.00 in0.0 mm
02:15 AM 55.3°F12.9°C 53.3°F11.8°C 93% 4.1 mph N6.6 kmh N 5.4 mph8.7 kmh 29.95 in1014.2 mb 0.00 in0.0 mm 0.00 in/hr0.0 mm/hr 0.00 in0.0 mm
02:30 AM 54.9°F12.7°C 52.7°F11.5°C 92% 4.2 mph N6.8 kmh N 6.0 mph9.7 kmh 29.96 in1014.6 mb 0.00 in0.0 mm 0.00 in/hr0.0 mm/hr 0.00 in0.0 mm
02:45 AM 54.4°F12.4°C 51.2°F10.7°C 89% 3.3 mph NNW5.3 kmh NNW 6.0 mph9.7 kmh 29.96 in1014.6 mb 0.00 in0.0 mm 0.00 in/hr0.0 mm/hr 0.00 in0.0 mm
03:00 AM 54.0°F12.2°C 50.6°F10.3°C 88% 3.9 mph NNW6.3 kmh NNW 5.4 mph8.7 kmh 29.96 in1014.6 mb 0.00 in0.0 mm 0.00 in/hr0.0 mm/hr 0.00 in0.0 mm
03:15 AM 53.7°F12.1°C 49.9°F9.9°C 87% 3.2 mph N5.1 kmh N 4.5 mph7.2 kmh 29.96 in1014.6 mb 0.00 in0.0 mm 0.00 in/hr0.0 mm/hr 0.00 in0.0 mm
03:30 AM 53.7°F12.1°C 49.6°F9.8°C 86% 2.9 mph NW4.7 kmh NW 3.8 mph6.1 kmh 29.96 in1014.6 mb 0.00 in0.0 mm 0.00 in/hr0.0 mm/hr 0.00 in0.0 mm
03:45 AM 53.5°F11.9°C 49.4°F9.7°C 86% 3.2 mph NNW5.1 kmh NNW 3.8 mph6.1 kmh 29.96 in1014.6 mb 0.00 in0.0 mm 0.00 in/hr0.0 mm/hr 0.00 in0.0 mm
04:00 AM 53.1°F11.7°C 49.1°F9.5°C 86% 3.5 mph NW5.6 kmh NW 5.4 mph8.7 kmh 29.96 in1014.6 mb 0.00 in0.0 mm 0.00 in/hr0.0 mm/hr 0.00 in0.0 mm
04:15 AM 53.0°F11.7°C 48.6°F9.2°C 85% 4.3 mph N6.9 kmh N 8.3 mph13.4 kmh 29.96 in1014.6 mb 0.00 in0.0 mm 0.00 in/hr0.0 mm/hr 0.00 in0.0 mm
04:30 AM 52.8°F11.6°C 48.4°F9.1°C 85% 3.1 mph NNW5.0 kmh NNW 3.8 mph6.1 kmh 29.97 in1014.9 mb 0.00 in0.0 mm 0.00 in/hr0.0 mm/hr 0.00 in0.0 mm
04:45 AM 52.6°F11.4°C 48.2°F9.0°C 85% 2.6 mph NNW4.2 kmh NNW 4.5 mph7.2 kmh 29.97 in1014.9 mb 0.00 in0.0 mm 0.00 in/hr0.0 mm/hr 0.00 in0.0 mm
05:00 AM 52.2°F11.2°C 47.9°F8.8°C 85% 3.4 mph N5.5 kmh N 4.5 mph7.2 kmh 29.97 in1014.9 mb 0.00 in0.0 mm 0.00 in/hr0.0 mm/hr 0.00 in0.0 mm
05:15 AM 52.1°F11.2°C 47.4°F8.6°C 84% 4.7 mph NNW7.6 kmh NNW 8.3 mph13.4 kmh 29.97 in1014.9 mb 0.00 in0.0 mm 0.00 in/hr0.0 mm/hr 0.00 in0.0 mm
05:30 AM 51.7°F10.9°C 46.7°F8.2°C 83% 4.3 mph N6.9 kmh N 6.0 mph9.7 kmh 29.98 in1015.2 mb 0.00 in0.0 mm 0.00 in/hr0.0 mm/hr 0.00 in0.0 mm
05:45 AM 51.5°F10.8°C 46.5°F8.1°C 83% 2.9 mph WNW4.7 kmh WNW 5.4 mph8.7 kmh 29.98 in1015.2 mb 0.00 in0.0 mm 0.00 in/hr0.0 mm/hr 0.00 in0.0 mm
06:00 AM 51.2°F10.7°C 45.9°F7.7°C 82% 2.6 mph NW4.2 kmh NW 3.8 mph6.1 kmh 29.99 in1015.6 mb 0.00 in0.0 mm 0.00 in/hr0.0 mm/hr 0.00 in0.0 mm
06:15 AM 50.8°F10.4°C 45.5°F7.5°C 82% 3.2 mph WNW5.1 kmh WNW 4.5 mph7.2 kmh 30.00 in1015.9 mb 0.00 in0.0 mm 0.00 in/hr0.0 mm/hr 0.00 in0.0 mm
06:30 AM 50.6°F10.3°C 45.7°F7.6°C 83% 3.2 mph NW5.1 kmh NW 5.4 mph8.7 kmh 30.00 in1015.9 mb 0.00 in0.0 mm 0.00 in/hr0.0 mm/hr 0.00 in0.0 mm
06:45 AM 50.4°F10.2°C 45.5°F7.5°C 83% 4.3 mph NW6.9 kmh NW 5.4 mph8.7 kmh 30.00 in1015.9 mb 0.00 in0.0 mm 0.00 in/hr0.0 mm/hr 0.00 in0.0 mm
07:00 AM 50.4°F10.2°C 45.8°F7.7°C 84% 4.4 mph N7.1 kmh N 6.0 mph9.7 kmh 30.01 in1016.3 mb 0.00 in0.0 mm 0.00 in/hr0.0 mm/hr 0.00 in0.0 mm
07:15 AM 50.4°F10.2°C 45.8°F7.7°C 84% 4.1 mph NNW6.6 kmh NNW 6.0 mph9.7 kmh 30.01 in1016.3 mb 0.00 in0.0 mm 0.00 in/hr0.0 mm/hr 0.00 in0.0 mm
07:30 AM 50.8°F10.4°C 45.8°F7.7°C 83% 2.8 mph NW4.5 kmh NW 4.5 mph7.2 kmh 30.02 in1016.6 mb 0.00 in0.0 mm 0.00 in/hr0.0 mm/hr 0.00 in0.0 mm
07:45 AM 51.0°F10.6°C 46.0°F7.8°C 83% 2.8 mph NW4.5 kmh NW 5.4 mph8.7 kmh 30.02 in1016.6 mb 0.00 in0.0 mm 0.00 in/hr0.0 mm/hr 0.00 in0.0 mm
08:00 AM 51.2°F10.7°C 46.2°F7.9°C 83% 3.5 mph N5.6 kmh N 5.4 mph8.7 kmh 30.04 in1017.3 mb 0.00 in0.0 mm 0.00 in/hr0.0 mm/hr 0.00 in0.0 mm
08:15 AM 51.2°F10.7°C 46.2°F7.9°C 83% 3.2 mph WNW5.1 kmh WNW 3.8 mph6.1 kmh 30.04 in1017.3 mb 0.00 in0.0 mm 0.00 in/hr0.0 mm/hr 0.00 in0.0 mm
08:30 AM 50.8°F10.4°C 46.1°F7.8°C 84% 3.9 mph NW6.3 kmh NW 5.4 mph8.7 kmh 30.04 in1017.3 mb 0.00 in0.0 mm 0.00 in/hr0.0 mm/hr 0.00 in0.0 mm
08:45 AM 50.8°F10.4°C 46.1°F7.8°C 84% 4.3 mph NNW6.9 kmh NNW 5.4 mph8.7 kmh 30.04 in1017.3 mb 0.00 in0.0 mm 0.00 in/hr0.0 mm/hr 0.00 in0.0 mm
09:00 AM 50.4°F10.2°C 46.4°F8.0°C 86% 5.1 mph NNW8.2 kmh NNW 6.0 mph9.7 kmh 30.05 in1017.6 mb 0.00 in0.0 mm 0.00 in/hr0.0 mm/hr 0.00 in0.0 mm
09:15 AM 50.1°F10.1°C 46.4°F8.0°C 87% 4.5 mph N7.2 kmh N 6.0 mph9.7 kmh 30.06 in1017.9 mb 0.00 in0.0 mm 0.00 in/hr0.0 mm/hr 0.00 in0.0 mm
09:30 AM 50.4°F10.2°C 46.7°F8.2°C 87% 6.0 mph N9.7 kmh N 8.3 mph13.4 kmh 30.06 in1017.9 mb 0.00 in0.0 mm 0.00 in/hr0.0 mm/hr 0.00 in0.0 mm
09:45 AM 51.7°F10.9°C 47.0°F8.3°C 84% 3.0 mph NW4.8 kmh NW 5.4 mph8.7 kmh 30.05 in1017.6 mb 0.00 in0.0 mm 0.00 in/hr0.0 mm/hr 0.00 in0.0 mm
10:00 AM 52.6°F11.4°C 46.9°F8.3°C 81% 5.2 mph N8.4 kmh N 6.9 mph11.1 kmh 30.05 in1017.6 mb 0.00 in0.0 mm 0.00 in/hr0.0 mm/hr 0.00 in0.0 mm
10:15 AM 53.1°F11.7°C 46.8°F8.2°C 79% 4.0 mph NW6.4 kmh NW 5.4 mph8.7 kmh 30.06 in1017.9 mb 0.00 in0.0 mm 0.00 in/hr0.0 mm/hr 0.00 in0.0 mm
10:30 AM 53.9°F12.2°C 47.5°F8.6°C 79% 4.8 mph NE7.7 kmh NE 6.0 mph9.7 kmh 30.05 in1017.6 mb 0.00 in0.0 mm 0.00 in/hr0.0 mm/hr 0.00 in0.0 mm
10:45 AM 54.2°F12.3°C 47.5°F8.6°C 78% 4.6 mph NW7.4 kmh NW 7.6 mph12.2 kmh 30.06 in1017.9 mb 0.00 in0.0 mm 0.00 in/hr0.0 mm/hr 0.00 in0.0 mm
11:00 AM 54.4°F12.4°C 47.3°F8.5°C 77% 4.3 mph N6.9 kmh N 6.0 mph9.7 kmh 30.06 in1017.9 mb 0.00 in0.0 mm 0.00 in/hr0.0 mm/hr 0.00 in0.0 mm
11:15 AM 54.6°F12.6°C 47.5°F8.6°C 77% 4.0 mph NW6.4 kmh NW 4.5 mph7.2 kmh 30.07 in1018.3 mb 0.00 in0.0 mm 0.00 in/hr0.0 mm/hr 0.00 in0.0 mm
11:30 AM 54.6°F12.6°C 47.2°F8.4°C 76% 3.1 mph W5.0 kmh W 5.4 mph8.7 kmh 30.07 in1018.3 mb 0.00 in0.0 mm 0.00 in/hr0.0 mm/hr 0.00 in0.0 mm
11:45 AM 55.7°F13.2°C 48.2°F9.0°C 76% 3.4 mph W5.5 kmh W 4.5 mph7.2 kmh 30.07 in1018.3 mb 0.00 in0.0 mm 0.00 in/hr0.0 mm/hr 0.00 in0.0 mm
12:00 PM 56.6°F13.7°C 48.0°F8.9°C 73% 3.5 mph SSW5.6 kmh SSW 4.5 mph7.2 kmh 30.06 in1017.9 mb 0.00 in0.0 mm 0.00 in/hr0.0 mm/hr 0.00 in0.0 mm
12:15 PM 57.8°F14.3°C 48.9°F9.4°C 72% 3.5 mph NW5.6 kmh NW 6.9 mph11.1 kmh 30.06 in1017.9 mb 0.00 in0.0 mm 0.00 in/hr0.0 mm/hr 0.00 in0.0 mm
12:30 PM 59.1°F15.1°C 48.5°F9.2°C 68% 3.9 mph N6.3 kmh N 6.0 mph9.7 kmh 30.06 in1017.9 mb 0.00 in0.0 mm 0.00 in/hr0.0 mm/hr 0.00 in0.0 mm
12:45 PM 60.0°F15.6°C 48.2°F9.0°C 65% 5.0 mph SSW8.0 kmh SSW 7.6 mph12.2 kmh 30.06 in1017.9 mb 0.00 in0.0 mm 0.00 in/hr0.0 mm/hr 0.00 in0.0 mm
01:00 PM 61.2°F16.2°C 48.6°F9.2°C 63% 5.0 mph NNW8.0 kmh NNW 7.6 mph12.2 kmh 30.05 in1017.6 mb 0.00 in0.0 mm 0.00 in/hr0.0 mm/hr 0.00 in0.0 mm
01:15 PM 62.3°F16.8°C 49.1°F9.5°C 62% 4.5 mph NW7.2 kmh NW 5.4 mph8.7 kmh 30.05 in1017.6 mb 0.00 in0.0 mm 0.00 in/hr0.0 mm/hr 0.00 in0.0 mm
01:30 PM 63.4°F17.4°C 49.3°F9.6°C 60% 4.6 mph WSW7.4 kmh WSW 6.9 mph11.1 kmh 30.05 in1017.6 mb 0.00 in0.0 mm 0.00 in/hr0.0 mm/hr 0.00 in0.0 mm
01:45 PM 64.5°F18.1°C 48.9°F9.4°C 57% 6.1 mph WNW9.8 kmh WNW 8.3 mph13.4 kmh 30.04 in1017.3 mb 0.00 in0.0 mm 0.00 in/hr0.0 mm/hr 0.00 in0.0 mm
02:00 PM 65.6°F18.7°C 49.0°F9.4°C 55% 5.6 mph NW9.0 kmh NW 6.9 mph11.1 kmh 30.04 in1017.3 mb 0.00 in0.0 mm 0.00 in/hr0.0 mm/hr 0.00 in0.0 mm
02:15 PM 66.6°F19.2°C 49.0°F9.4°C 53% 5.9 mph NNW9.5 kmh NNW 7.6 mph12.2 kmh 30.04 in1017.3 mb 0.00 in0.0 mm 0.00 in/hr0.0 mm/hr 0.00 in0.0 mm
02:30 PM 66.3°F19.1°C 48.1°F8.9°C 52% 7.2 mph NW11.6 kmh NW 7.6 mph12.2 kmh 30.04 in1017.3 mb 0.00 in0.0 mm 0.00 in/hr0.0 mm/hr 0.00 in0.0 mm
02:45 PM 66.8°F19.3°C 48.6°F9.2°C 52% 6.4 mph NNW10.3 kmh NNW 7.6 mph12.2 kmh 30.04 in1017.3 mb 0.00 in0.0 mm 0.00 in/hr0.0 mm/hr 0.00 in0.0 mm
03:00 PM 67.2°F19.6°C 47.9°F8.8°C 50% 5.8 mph NW9.3 kmh NW 8.3 mph13.4 kmh 30.04 in1017.3 mb 0.00 in0.0 mm 0.00 in/hr0.0 mm/hr 0.00 in0.0 mm
03:15 PM 66.1°F18.9°C 47.5°F8.6°C 51% 5.8 mph NNW9.3 kmh NNW 8.3 mph13.4 kmh 30.03 in1016.9 mb 0.00 in0.0 mm 0.00 in/hr0.0 mm/hr 0.00 in0.0 mm
03:30 PM 65.9°F18.8°C 47.3°F8.5°C 51% 5.9 mph NW9.5 kmh NW 9.2 mph14.8 kmh 30.03 in1016.9 mb 0.00 in0.0 mm 0.00 in/hr0.0 mm/hr 0.00 in0.0 mm
03:45 PM 67.9°F19.9°C 48.6°F9.2°C 50% 5.1 mph N8.2 kmh N 7.6 mph12.2 kmh 30.03 in1016.9 mb 0.00 in0.0 mm 0.00 in/hr0.0 mm/hr 0.00 in0.0 mm
04:00 PM 67.7°F19.8°C 47.9°F8.8°C 49% 6.5 mph NNW10.5 kmh NNW 9.2 mph14.8 kmh 30.03 in1016.9 mb 0.00 in0.0 mm 0.00 in/hr0.0 mm/hr 0.00 in0.0 mm
04:15 PM 67.4°F19.7°C 47.0°F8.3°C 48% 7.2 mph NNW11.6 kmh NNW 10.7 mph17.2 kmh 30.03 in1016.9 mb 0.00 in0.0 mm 0.00 in/hr0.0 mm/hr 0.00 in0.0 mm
04:30 PM 67.4°F19.7°C 46.5°F8.1°C 47% 7.3 mph N11.7 kmh N 11.4 mph18.3 kmh 30.01 in1016.3 mb 0.00 in0.0 mm 0.00 in/hr0.0 mm/hr 0.00 in0.0 mm
04:45 PM 67.0°F19.4°C 45.6°F7.6°C 46% 7.0 mph NNW11.3 kmh NNW 10.7 mph17.2 kmh 30.01 in1016.3 mb 0.00 in0.0 mm 0.00 in/hr0.0 mm/hr 0.00 in0.0 mm
05:00 PM 66.6°F19.2°C 45.8°F7.7°C 47% 5.8 mph N9.3 kmh N 8.3 mph13.4 kmh 30.01 in1016.3 mb 0.00 in0.0 mm 0.00 in/hr0.0 mm/hr 0.00 in0.0 mm
05:15 PM 66.3°F19.1°C 44.9°F7.2°C 46% 7.4 mph N11.9 kmh N 9.8 mph15.8 kmh 30.01 in1016.3 mb 0.00 in0.0 mm 0.00 in/hr0.0 mm/hr 0.00 in0.0 mm
05:30 PM 64.7°F18.2°C 44.5°F6.9°C 48% 7.1 mph NW11.4 kmh NW 9.2 mph14.8 kmh 30.01 in1016.3 mb 0.00 in0.0 mm 0.00 in/hr0.0 mm/hr 0.00 in0.0 mm
05:45 PM 63.9°F17.7°C 42.8°F6.0°C 46% 7.7 mph NW12.4 kmh NW 9.2 mph14.8 kmh 30.01 in1016.3 mb 0.00 in0.0 mm 0.00 in/hr0.0 mm/hr 0.00 in0.0 mm
06:00 PM 63.8°F17.7°C 43.7°F6.5°C 48% 4.6 mph NW7.4 kmh NW 6.9 mph11.1 kmh 30.02 in1016.6 mb 0.00 in0.0 mm 0.00 in/hr0.0 mm/hr 0.00 in0.0 mm
06:15 PM 62.1°F16.7°C 41.7°F5.4°C 47% 6.2 mph N10.0 kmh N 7.6 mph12.2 kmh 30.02 in1016.6 mb 0.00 in0.0 mm 0.00 in/hr0.0 mm/hr 0.00 in0.0 mm
06:30 PM 62.3°F16.8°C 42.4°F5.8°C 48% 4.1 mph NW6.6 kmh NW 5.4 mph8.7 kmh 30.02 in1016.6 mb 0.00 in0.0 mm 0.00 in/hr0.0 mm/hr 0.00 in0.0 mm
06:45 PM 61.8°F16.6°C 41.4°F5.2°C 47% 5.6 mph NW9.0 kmh NW 6.9 mph11.1 kmh 30.02 in1016.6 mb 0.00 in0.0 mm 0.00 in/hr0.0 mm/hr 0.00 in0.0 mm
07:00 PM 60.5°F15.8°C 40.7°F4.8°C 48% 6.5 mph NNW10.5 kmh NNW 9.2 mph14.8 kmh 30.02 in1016.6 mb 0.00 in0.0 mm 0.00 in/hr0.0 mm/hr 0.00 in0.0 mm
07:15 PM 60.2°F15.7°C 39.9°F4.4°C 47% 5.8 mph NW9.3 kmh NW 7.6 mph12.2 kmh 30.03 in1016.9 mb 0.00 in0.0 mm 0.00 in/hr0.0 mm/hr 0.00 in0.0 mm
07:30 PM 59.1°F15.1°C 39.4°F4.1°C 48% 4.7 mph W7.6 kmh W 6.9 mph11.1 kmh 30.04 in1017.3 mb 0.00 in0.0 mm 0.00 in/hr0.0 mm/hr 0.00 in0.0 mm
07:45 PM 58.2°F14.6°C 39.1°F3.9°C 49% 4.3 mph W6.9 kmh W 6.9 mph11.1 kmh 30.04 in1017.3 mb 0.00 in0.0 mm 0.00 in/hr0.0 mm/hr 0.00 in0.0 mm
08:00 PM 57.5°F14.2°C 39.0°F3.9°C 50% 4.4 mph NW7.1 kmh NW 6.0 mph9.7 kmh 30.04 in1017.3 mb 0.00 in0.0 mm 0.00 in/hr0.0 mm/hr 0.00 in0.0 mm
08:15 PM 56.7°F13.7°C 38.3°F3.5°C 50% 3.5 mph W5.6 kmh W 4.5 mph7.2 kmh 30.04 in1017.3 mb 0.00 in0.0 mm 0.00 in/hr0.0 mm/hr 0.00 in0.0 mm
08:30 PM 56.0°F13.3°C 38.2°F3.4°C 51% 2.9 mph W4.7 kmh W 4.5 mph7.2 kmh 30.04 in1017.3 mb 0.00 in0.0 mm 0.00 in/hr0.0 mm/hr 0.00 in0.0 mm
08:45 PM 55.5°F13.1°C 38.2°F3.4°C 52% 2.0 mph WSW3.2 kmh WSW 2.2 mph3.5 kmh 30.05 in1017.6 mb 0.00 in0.0 mm 0.00 in/hr0.0 mm/hr 0.00 in0.0 mm
09:00 PM 54.8°F12.7°C 38.0°F3.3°C 53% 1.9 mph S3.1 kmh S 3.1 mph5.0 kmh 30.04 in1017.3 mb 0.00 in0.0 mm 0.00 in/hr0.0 mm/hr 0.00 in0.0 mm
09:15 PM 54.0°F12.2°C 37.8°F3.2°C 54% 1.9 mph SSW3.1 kmh SSW 2.2 mph3.5 kmh 30.05 in1017.6 mb 0.00 in0.0 mm 0.00 in/hr0.0 mm/hr 0.00 in0.0 mm
09:30 PM 53.3°F11.8°C 37.6°F3.1°C 55% 2.0 mph SSW3.2 kmh SSW 2.2 mph3.5 kmh 30.06 in1017.9 mb 0.00 in0.0 mm 0.00 in/hr0.0 mm/hr 0.00 in0.0 mm
09:45 PM 52.6°F11.4°C 37.4°F3.0°C 56% 1.2 mph SW1.9 kmh SW 1.6 mph2.6 kmh 30.06 in1017.9 mb 0.00 in0.0 mm 0.00 in/hr0.0 mm/hr 0.00 in0.0 mm
10:00 PM 51.9°F11.1°C 38.0°F3.3°C 59% 1.1 mph WSW1.8 kmh WSW 2.2 mph3.5 kmh 30.07 in1018.3 mb 0.00 in0.0 mm 0.00 in/hr0.0 mm/hr 0.00 in0.0 mm
10:15 PM 51.3°F10.7°C 37.5°F3.1°C 59% 1.9 mph SW3.1 kmh SW 3.8 mph6.1 kmh 30.07 in1018.3 mb 0.00 in0.0 mm 0.00 in/hr0.0 mm/hr 0.00 in0.0 mm
10:30 PM 51.3°F10.7°C 37.9°F3.3°C 60% 2.2 mph SSW3.5 kmh SSW 3.8 mph6.1 kmh 30.07 in1018.3 mb 0.00 in0.0 mm 0.00 in/hr0.0 mm/hr 0.00 in0.0 mm
10:45 PM 51.2°F10.7°C 37.8°F3.2°C 60% 2.2 mph SW3.5 kmh SW 3.1 mph5.0 kmh 30.07 in1018.3 mb 0.00 in0.0 mm 0.00 in/hr0.0 mm/hr 0.00 in0.0 mm
11:00 PM 50.6°F10.3°C 37.7°F3.2°C 61% 1.5 mph SW2.4 kmh SW 2.2 mph3.5 kmh 30.07 in1018.3 mb 0.00 in0.0 mm 0.00 in/hr0.0 mm/hr 0.00 in0.0 mm
11:15 PM 50.3°F10.2°C 37.3°F2.9°C 61% 2.0 mph SW3.2 kmh SW 3.1 mph5.0 kmh 30.07 in1018.3 mb 0.00 in0.0 mm 0.00 in/hr0.0 mm/hr 0.00 in0.0 mm
11:30 PM 50.3°F10.2°C 37.3°F2.9°C 61% 2.0 mph SSW3.2 kmh SSW 3.1 mph5.0 kmh 30.07 in1018.3 mb 0.00 in0.0 mm 0.00 in/hr0.0 mm/hr 0.00 in0.0 mm
11:45 PM 49.7°F9.8°C 36.8°F2.7°C 61% 1.7 mph SW2.7 kmh SW 2.2 mph3.5 kmh 30.07 in1018.3 mb 0.00 in0.0 mm 0.00 in/hr0.0 mm/hr 0.00 in0.0 mm